Overview Statistics Trail Chart Weather Telemetry Raw packets
 

This is the latest recevied weather packets stored in our database for station/object N1SU-13. If no packets are shown the sender has not sent any weather packets the latest 10 day(s).

<< 18 19 20 21 22 23 24 >>
Time Temp. Humidity Pressure Rain* Wind** Luminosity Snow
1788405311 12.78° C 90% 1005.6 hPa 0 mm - - -
1788404711 12.78° C 89% 1005.4 hPa 0 mm - - -
1788404085 12.78° C 88% 1005.2 hPa 0 mm - - -
1788403504 13.33° C 87% 1005.1 hPa 0 mm - - -
1788402802 13.89° C 86% 1005.2 hPa 0 mm - - -
1788402143 13.89° C 85% 1004.8 hPa 0 mm - - -
1788401779 14.44° C 84% 1004.7 hPa 0 mm - - -
1788401520 14.44° C 83% 1004.7 hPa 0 mm - - -
1788400940 13.89° C 83% 1004.5 hPa 1.78 mm - - -
1788400311 13.33° C 87% 1004.6 hPa 2.54 mm - - -
1788399651 13.33° C 88% 1004.4 hPa 2.54 mm - - -
1788399031 13.33° C 89% 1004.3 hPa 2.54 mm - - -
1788398456 13.33° C 90% 1004 hPa 2.54 mm - - -
1788397909 13.33° C 91% 1003.9 hPa 2.54 mm - - -
1788397264 13.89° C 91% 1004 hPa 0.25 mm - - -
1788396562 14.44° C 88% 1003.4 hPa 0 mm - - -
1788395870 14.44° C 82% 1002.8 hPa 0 mm - - -
1788395287 14.44° C 82% 1002.9 hPa 0 mm - - -
1788394677 14.44° C 86% 1002.8 hPa 0.25 mm - - -
1788393992 14.44° C 84% 1002.8 hPa 0.76 mm - - -
1788393328 14.44° C 86% 1002.9 hPa 0.76 mm - - -
1788392732 14.44° C 87% 1003.1 hPa 1.02 mm - - -
1788392031 14.44° C 86% 1003.2 hPa 1.52 mm - - -
1788391376 14.44° C 88% 1003.7 hPa 1.52 mm - - -
1788390801 15° C 86% 1003.6 hPa 1.02 mm - - -

* Rain latest hour (hover to see other rain measurements)
** Current wind speed in m/s (hover to see current wind gust speed)